sensor_id;sensor_type;location;lat;lon;timestamp;P1;durP1;ratioP1;P2;durP2;ratioP2
54428;SDS011;40337;52.978;6.310;2023-04-25T00:01:33;17.80;;;5.15;;
54428;SDS011;40337;52.978;6.310;2023-04-25T00:04:01;15.90;;;4.68;;
54428;SDS011;40337;52.978;6.310;2023-04-25T00:06:27;15.13;;;4.82;;
54428;SDS011;40337;52.978;6.310;2023-04-25T00:08:54;26.23;;;5.40;;
54428;SDS011;40337;52.978;6.310;2023-04-25T00:11:21;15.02;;;4.60;;
54428;SDS011;40337;52.978;6.310;2023-04-25T00:13:47;17.25;;;4.43;;
54428;SDS011;40337;52.978;6.310;2023-04-25T00:16:14;18.45;;;5.45;;
54428;SDS011;40337;52.978;6.310;2023-04-25T00:18:40;16.58;;;4.90;;
54428;SDS011;40337;52.978;6.310;2023-04-25T00:21:06;16.95;;;4.78;;
54428;SDS011;40337;52.978;6.310;2023-04-25T00:23:32;17.05;;;5.13;;
54428;SDS011;40337;52.978;6.310;2023-04-25T00:25:58;14.15;;;4.82;;
54428;SDS011;40337;52.978;6.310;2023-04-25T00:28:23;17.20;;;4.78;;
54428;SDS011;40337;52.978;6.310;2023-04-25T00:30:49;17.98;;;5.15;;
54428;SDS011;40337;52.978;6.310;2023-04-25T00:33:15;15.13;;;4.65;;
54428;SDS011;40337;52.978;6.310;2023-04-25T00:35:40;14.73;;;4.75;;
54428;SDS011;40337;52.978;6.310;2023-04-25T00:38:06;19.55;;;5.28;;
54428;SDS011;40337;52.978;6.310;2023-04-25T00:40:32;14.40;;;5.05;;
54428;SDS011;40337;52.978;6.310;2023-04-25T00:42:58;15.13;;;4.80;;
54428;SDS011;40337;52.978;6.310;2023-04-25T00:45:24;14.50;;;4.63;;
54428;SDS011;40337;52.978;6.310;2023-04-25T00:47:54;17.60;;;4.90;;
54428;SDS011;40337;52.978;6.310;2023-04-25T00:50:20;17.42;;;5.15;;
54428;SDS011;40337;52.978;6.310;2023-04-25T00:52:45;12.60;;;4.70;;
54428;SDS011;40337;52.978;6.310;2023-04-25T00:55:12;18.48;;;5.20;;
54428;SDS011;40337;52.978;6.310;2023-04-25T00:57:44;19.30;;;5.30;;
54428;SDS011;40337;52.978;6.310;2023-04-25T01:00:10;15.13;;;4.75;;
54428;SDS011;40337;52.978;6.310;2023-04-25T01:02:36;15.52;;;4.90;;
54428;SDS011;40337;52.978;6.310;2023-04-25T01:05:02;15.82;;;4.80;;
54428;SDS011;40337;52.978;6.310;2023-04-25T01:07:28;16.08;;;4.63;;
54428;SDS011;40337;52.978;6.310;2023-04-25T01:09:54;16.10;;;4.47;;
54428;SDS011;40337;52.978;6.310;2023-04-25T01:12:19;16.73;;;4.68;;
54428;SDS011;40337;52.978;6.310;2023-04-25T01:14:45;13.98;;;4.25;;
54428;SDS011;40337;52.978;6.310;2023-04-25T01:17:11;16.30;;;4.32;;
54428;SDS011;40337;52.978;6.310;2023-04-25T01:19:37;15.73;;;4.47;;
54428;SDS011;40337;52.978;6.310;2023-04-25T01:22:03;14.10;;;4.32;;
54428;SDS011;40337;52.978;6.310;2023-04-25T01:24:30;16.77;;;4.65;;
54428;SDS011;40337;52.978;6.310;2023-04-25T01:26:57;14.65;;;4.00;;
54428;SDS011;40337;52.978;6.310;2023-04-25T01:29:25;17.65;;;4.57;;
54428;SDS011;40337;52.978;6.310;2023-04-25T01:31:52;13.40;;;4.20;;
54428;SDS011;40337;52.978;6.310;2023-04-25T01:34:17;14.52;;;4.22;;
54428;SDS011;40337;52.978;6.310;2023-04-25T01:36:43;16.02;;;4.45;;
54428;SDS011;40337;52.978;6.310;2023-04-25T01:39:09;14.48;;;4.15;;
54428;SDS011;40337;52.978;6.310;2023-04-25T01:41:34;14.88;;;3.92;;
54428;SDS011;40337;52.978;6.310;2023-04-25T01:44:00;16.50;;;4.10;;
54428;SDS011;40337;52.978;6.310;2023-04-25T01:46:27;14.00;;;4.22;;
54428;SDS011;40337;52.978;6.310;2023-04-25T01:48:53;14.70;;;4.47;;
54428;SDS011;40337;52.978;6.310;2023-04-25T01:51:18;14.80;;;4.10;;
54428;SDS011;40337;52.978;6.310;2023-04-25T01:53:44;14.57;;;4.20;;
54428;SDS011;40337;52.978;6.310;2023-04-25T01:56:10;16.45;;;4.00;;
54428;SDS011;40337;52.978;6.310;2023-04-25T01:58:35;16.40;;;4.47;;
54428;SDS011;40337;52.978;6.310;2023-04-25T02:01:01;13.55;;;3.80;;
54428;SDS011;40337;52.978;6.310;2023-04-25T02:03:26;17.58;;;4.03;;
54428;SDS011;40337;52.978;6.310;2023-04-25T02:05:52;16.15;;;4.45;;
54428;SDS011;40337;52.978;6.310;2023-04-25T02:08:18;15.68;;;3.88;;
54428;SDS011;40337;52.978;6.310;2023-04-25T02:10:43;13.30;;;3.70;;
54428;SDS011;40337;52.978;6.310;2023-04-25T02:13:09;11.35;;;3.33;;
54428;SDS011;40337;52.978;6.310;2023-04-25T02:15:35;13.10;;;3.88;;
54428;SDS011;40337;52.978;6.310;2023-04-25T02:18:00;11.10;;;3.22;;
54428;SDS011;40337;52.978;6.310;2023-04-25T02:20:27;14.77;;;3.85;;
54428;SDS011;40337;52.978;6.310;2023-04-25T02:22:53;14.10;;;3.72;;
54428;SDS011;40337;52.978;6.310;2023-04-25T02:25:19;11.10;;;3.53;;
54428;SDS011;40337;52.978;6.310;2023-04-25T02:27:45;13.10;;;3.47;;
54428;SDS011;40337;52.978;6.310;2023-04-25T02:30:12;13.30;;;3.63;;
54428;SDS011;40337;52.978;6.310;2023-04-25T02:32:38;11.65;;;3.28;;
54428;SDS011;40337;52.978;6.310;2023-04-25T02:35:04;11.95;;;3.25;;
54428;SDS011;40337;52.978;6.310;2023-04-25T02:37:32;11.20;;;3.22;;
54428;SDS011;40337;52.978;6.310;2023-04-25T02:39:59;10.70;;;3.28;;
54428;SDS011;40337;52.978;6.310;2023-04-25T02:42:25;15.48;;;3.63;;
54428;SDS011;40337;52.978;6.310;2023-04-25T02:44:51;10.20;;;2.92;;
54428;SDS011;40337;52.978;6.310;2023-04-25T02:47:17;12.07;;;3.00;;
54428;SDS011;40337;52.978;6.310;2023-04-25T02:49:43;9.68;;;3.17;;
54428;SDS011;40337;52.978;6.310;2023-04-25T02:52:08;10.10;;;3.00;;
54428;SDS011;40337;52.978;6.310;2023-04-25T02:54:34;11.82;;;3.40;;
54428;SDS011;40337;52.978;6.310;2023-04-25T02:56:59;9.20;;;3.03;;
54428;SDS011;40337;52.978;6.310;2023-04-25T02:59:26;10.13;;;2.92;;
54428;SDS011;40337;52.978;6.310;2023-04-25T03:01:51;13.52;;;3.20;;
54428;SDS011;40337;52.978;6.310;2023-04-25T03:04:17;11.07;;;3.08;;
54428;SDS011;40337;52.978;6.310;2023-04-25T03:06:44;8.10;;;2.50;;
54428;SDS011;40337;52.978;6.310;2023-04-25T03:09:09;10.57;;;3.13;;
54428;SDS011;40337;52.978;6.310;2023-04-25T03:11:36;7.20;;;2.10;;
54428;SDS011;40337;52.978;6.310;2023-04-25T03:14:03;7.53;;;2.15;;
54428;SDS011;40337;52.978;6.310;2023-04-25T03:16:28;11.20;;;2.15;;
54428;SDS011;40337;52.978;6.310;2023-04-25T03:18:54;5.53;;;2.00;;
54428;SDS011;40337;52.978;6.310;2023-04-25T03:21:20;5.93;;;2.03;;
54428;SDS011;40337;52.978;6.310;2023-04-25T03:23:45;6.68;;;2.20;;
54428;SDS011;40337;52.978;6.310;2023-04-25T03:26:11;8.73;;;2.25;;
54428;SDS011;40337;52.978;6.310;2023-04-25T03:28:36;6.40;;;1.73;;
54428;SDS011;40337;52.978;6.310;2023-04-25T03:31:02;9.23;;;2.78;;
54428;SDS011;40337;52.978;6.310;2023-04-25T03:33:27;9.48;;;2.10;;
54428;SDS011;40337;52.978;6.310;2023-04-25T03:35:53;7.78;;;1.90;;
54428;SDS011;40337;52.978;6.310;2023-04-25T03:38:18;6.38;;;2.00;;
54428;SDS011;40337;52.978;6.310;2023-04-25T03:40:44;7.45;;;2.00;;
54428;SDS011;40337;52.978;6.310;2023-04-25T03:43:09;9.18;;;2.40;;
54428;SDS011;40337;52.978;6.310;2023-04-25T03:45:36;6.63;;;2.10;;
54428;SDS011;40337;52.978;6.310;2023-04-25T03:48:01;6.93;;;2.05;;
54428;SDS011;40337;52.978;6.310;2023-04-25T03:50:27;7.45;;;2.28;;
54428;SDS011;40337;52.978;6.310;2023-04-25T03:52:52;8.20;;;2.20;;
54428;SDS011;40337;52.978;6.310;2023-04-25T03:55:18;6.55;;;2.00;;
54428;SDS011;40337;52.978;6.310;2023-04-25T03:57:44;6.57;;;2.10;;
54428;SDS011;40337;52.978;6.310;2023-04-25T04:00:09;7.18;;;2.13;;
54428;SDS011;40337;52.978;6.310;2023-04-25T04:02:35;11.05;;;2.65;;
54428;SDS011;40337;52.978;6.310;2023-04-25T04:05:02;10.27;;;3.03;;
54428;SDS011;40337;52.978;6.310;2023-04-25T04:07:28;7.07;;;2.35;;
54428;SDS011;40337;52.978;6.310;2023-04-25T04:09:54;9.88;;;2.55;;
54428;SDS011;40337;52.978;6.310;2023-04-25T04:12:20;10.10;;;2.55;;
54428;SDS011;40337;52.978;6.310;2023-04-25T04:14:45;11.18;;;3.38;;
54428;SDS011;40337;52.978;6.310;2023-04-25T04:17:11;7.43;;;2.40;;
54428;SDS011;40337;52.978;6.310;2023-04-25T04:19:36;11.07;;;2.80;;
54428;SDS011;40337;52.978;6.310;2023-04-25T04:22:02;8.90;;;2.40;;
54428;SDS011;40337;52.978;6.310;2023-04-25T04:24:27;8.23;;;2.70;;
54428;SDS011;40337;52.978;6.310;2023-04-25T04:26:53;8.43;;;2.72;;
54428;SDS011;40337;52.978;6.310;2023-04-25T04:29:18;10.00;;;2.70;;
54428;SDS011;40337;52.978;6.310;2023-04-25T04:31:49;9.48;;;2.53;;
54428;SDS011;40337;52.978;6.310;2023-04-25T04:34:18;10.75;;;2.90;;
54428;SDS011;40337;52.978;6.310;2023-04-25T04:36:44;12.13;;;3.05;;
54428;SDS011;40337;52.978;6.310;2023-04-25T04:39:13;8.88;;;2.60;;
54428;SDS011;40337;52.978;6.310;2023-04-25T04:41:39;8.43;;;2.40;;
54428;SDS011;40337;52.978;6.310;2023-04-25T04:44:05;10.38;;;2.78;;
54428;SDS011;40337;52.978;6.310;2023-04-25T04:46:31;10.43;;;2.75;;
54428;SDS011;40337;52.978;6.310;2023-04-25T04:49:03;9.70;;;3.03;;
54428;SDS011;40337;52.978;6.310;2023-04-25T04:51:31;10.25;;;3.00;;
54428;SDS011;40337;52.978;6.310;2023-04-25T04:53:58;9.65;;;2.55;;
54428;SDS011;40337;52.978;6.310;2023-04-25T04:56:27;8.23;;;2.50;;
54428;SDS011;40337;52.978;6.310;2023-04-25T04:58:54;8.73;;;2.58;;
54428;SDS011;40337;52.978;6.310;2023-04-25T05:01:20;9.38;;;2.80;;
54428;SDS011;40337;52.978;6.310;2023-04-25T05:03:45;10.10;;;2.70;;
54428;SDS011;40337;52.978;6.310;2023-04-25T05:06:11;11.75;;;2.85;;
54428;SDS011;40337;52.978;6.310;2023-04-25T05:08:36;9.85;;;2.63;;
54428;SDS011;40337;52.978;6.310;2023-04-25T05:11:02;11.48;;;2.60;;
54428;SDS011;40337;52.978;6.310;2023-04-25T05:13:27;11.65;;;2.90;;
54428;SDS011;40337;52.978;6.310;2023-04-25T05:15:53;11.98;;;2.80;;
54428;SDS011;40337;52.978;6.310;2023-04-25T05:18:19;8.23;;;3.00;;
54428;SDS011;40337;52.978;6.310;2023-04-25T05:20:44;10.27;;;2.78;;
54428;SDS011;40337;52.978;6.310;2023-04-25T05:23:10;10.82;;;2.95;;
54428;SDS011;40337;52.978;6.310;2023-04-25T05:25:35;8.32;;;2.60;;
54428;SDS011;40337;52.978;6.310;2023-04-25T05:28:01;11.40;;;2.85;;
54428;SDS011;40337;52.978;6.310;2023-04-25T05:30:27;9.90;;;2.78;;
54428;SDS011;40337;52.978;6.310;2023-04-25T05:32:52;11.65;;;3.20;;
54428;SDS011;40337;52.978;6.310;2023-04-25T05:35:18;9.35;;;2.80;;
54428;SDS011;40337;52.978;6.310;2023-04-25T05:37:44;8.50;;;2.78;;
54428;SDS011;40337;52.978;6.310;2023-04-25T05:40:09;10.02;;;3.33;;
54428;SDS011;40337;52.978;6.310;2023-04-25T05:42:35;8.18;;;2.47;;
54428;SDS011;40337;52.978;6.310;2023-04-25T05:45:01;9.82;;;3.00;;
54428;SDS011;40337;52.978;6.310;2023-04-25T05:47:28;8.23;;;2.70;;
54428;SDS011;40337;52.978;6.310;2023-04-25T05:49:53;12.68;;;3.28;;
54428;SDS011;40337;52.978;6.310;2023-04-25T05:52:19;9.90;;;2.60;;
54428;SDS011;40337;52.978;6.310;2023-04-25T05:54:44;11.35;;;2.30;;
54428;SDS011;40337;52.978;6.310;2023-04-25T05:57:18;9.73;;;2.63;;
54428;SDS011;40337;52.978;6.310;2023-04-25T05:59:47;11.50;;;2.67;;
54428;SDS011;40337;52.978;6.310;2023-04-25T06:02:13;8.80;;;2.47;;
54428;SDS011;40337;52.978;6.310;2023-04-25T06:04:38;11.07;;;2.90;;
54428;SDS011;40337;52.978;6.310;2023-04-25T06:07:04;7.53;;;2.58;;
54428;SDS011;40337;52.978;6.310;2023-04-25T06:09:29;8.43;;;2.70;;
54428;SDS011;40337;52.978;6.310;2023-04-25T06:11:55;10.73;;;2.85;;
54428;SDS011;40337;52.978;6.310;2023-04-25T06:14:20;9.95;;;2.45;;
54428;SDS011;40337;52.978;6.310;2023-04-25T06:16:46;8.00;;;2.40;;
54428;SDS011;40337;52.978;6.310;2023-04-25T06:19:11;11.38;;;2.40;;
54428;SDS011;40337;52.978;6.310;2023-04-25T06:21:37;6.90;;;2.30;;
54428;SDS011;40337;52.978;6.310;2023-04-25T06:24:02;9.80;;;2.70;;
54428;SDS011;40337;52.978;6.310;2023-04-25T06:26:28;9.30;;;2.30;;
54428;SDS011;40337;52.978;6.310;2023-04-25T06:28:54;10.85;;;2.85;;
54428;SDS011;40337;52.978;6.310;2023-04-25T06:31:19;8.80;;;2.22;;
54428;SDS011;40337;52.978;6.310;2023-04-25T06:33:45;9.57;;;2.63;;
54428;SDS011;40337;52.978;6.310;2023-04-25T06:36:10;10.10;;;2.67;;
54428;SDS011;40337;52.978;6.310;2023-04-25T06:38:36;12.32;;;2.40;;
54428;SDS011;40337;52.978;6.310;2023-04-25T06:41:01;7.40;;;1.98;;
54428;SDS011;40337;52.978;6.310;2023-04-25T06:43:27;7.88;;;2.10;;
54428;SDS011;40337;52.978;6.310;2023-04-25T06:45:53;8.13;;;2.53;;
54428;SDS011;40337;52.978;6.310;2023-04-25T06:48:19;10.13;;;2.33;;
54428;SDS011;40337;52.978;6.310;2023-04-25T06:50:44;8.82;;;2.10;;
54428;SDS011;40337;52.978;6.310;2023-04-25T06:53:10;9.63;;;2.40;;
54428;SDS011;40337;52.978;6.310;2023-04-25T06:55:36;6.60;;;2.03;;
54428;SDS011;40337;52.978;6.310;2023-04-25T06:58:03;7.15;;;1.95;;
54428;SDS011;40337;52.978;6.310;2023-04-25T07:00:28;7.32;;;2.10;;
54428;SDS011;40337;52.978;6.310;2023-04-25T07:02:55;7.63;;;2.10;;
54428;SDS011;40337;52.978;6.310;2023-04-25T07:05:20;6.75;;;2.00;;
54428;SDS011;40337;52.978;6.310;2023-04-25T07:07:46;8.18;;;2.10;;
54428;SDS011;40337;52.978;6.310;2023-04-25T07:10:11;9.27;;;1.90;;
54428;SDS011;40337;52.978;6.310;2023-04-25T07:12:37;8.13;;;1.58;;
54428;SDS011;40337;52.978;6.310;2023-04-25T07:15:03;6.30;;;1.90;;
54428;SDS011;40337;52.978;6.310;2023-04-25T07:17:31;6.55;;;1.70;;
54428;SDS011;40337;52.978;6.310;2023-04-25T07:19:57;6.68;;;1.67;;
54428;SDS011;40337;52.978;6.310;2023-04-25T07:22:23;7.53;;;1.85;;
54428;SDS011;40337;52.978;6.310;2023-04-25T07:24:49;6.57;;;1.42;;
54428;SDS011;40337;52.978;6.310;2023-04-25T07:27:15;7.05;;;2.00;;
54428;SDS011;40337;52.978;6.310;2023-04-25T07:29:40;7.45;;;1.90;;
54428;SDS011;40337;52.978;6.310;2023-04-25T07:32:06;7.10;;;1.65;;
54428;SDS011;40337;52.978;6.310;2023-04-25T07:34:32;7.53;;;1.77;;
54428;SDS011;40337;52.978;6.310;2023-04-25T07:37:02;5.82;;;1.60;;
54428;SDS011;40337;52.978;6.310;2023-04-25T07:39:27;6.45;;;1.90;;
54428;SDS011;40337;52.978;6.310;2023-04-25T07:41:53;6.80;;;2.25;;
54428;SDS011;40337;52.978;6.310;2023-04-25T07:44:18;6.60;;;2.05;;
54428;SDS011;40337;52.978;6.310;2023-04-25T07:46:44;7.07;;;2.05;;
54428;SDS011;40337;52.978;6.310;2023-04-25T07:49:10;7.50;;;1.92;;
54428;SDS011;40337;52.978;6.310;2023-04-25T07:51:36;6.80;;;2.10;;
54428;SDS011;40337;52.978;6.310;2023-04-25T07:54:01;9.07;;;2.28;;
54428;SDS011;40337;52.978;6.310;2023-04-25T07:56:27;9.93;;;2.38;;
54428;SDS011;40337;52.978;6.310;2023-04-25T07:58:53;7.55;;;2.20;;
54428;SDS011;40337;52.978;6.310;2023-04-25T08:01:18;8.85;;;2.40;;
54428;SDS011;40337;52.978;6.310;2023-04-25T08:03:46;8.85;;;2.30;;
54428;SDS011;40337;52.978;6.310;2023-04-25T08:06:11;8.65;;;2.15;;
54428;SDS011;40337;52.978;6.310;2023-04-25T08:08:37;7.65;;;2.00;;
54428;SDS011;40337;52.978;6.310;2023-04-25T08:11:03;7.35;;;1.88;;
54428;SDS011;40337;52.978;6.310;2023-04-25T08:13:28;5.95;;;1.70;;
54428;SDS011;40337;52.978;6.310;2023-04-25T08:15:54;8.90;;;2.05;;
54428;SDS011;40337;52.978;6.310;2023-04-25T08:18:19;6.05;;;1.95;;
54428;SDS011;40337;52.978;6.310;2023-04-25T08:20:45;8.20;;;1.90;;
54428;SDS011;40337;52.978;6.310;2023-04-25T08:23:10;10.05;;;2.30;;
54428;SDS011;40337;52.978;6.310;2023-04-25T08:25:36;7.60;;;2.35;;
54428;SDS011;40337;52.978;6.310;2023-04-25T08:28:01;7.15;;;2.10;;
54428;SDS011;40337;52.978;6.310;2023-04-25T08:30:28;6.53;;;2.25;;
54428;SDS011;40337;52.978;6.310;2023-04-25T08:32:54;9.65;;;2.25;;
54428;SDS011;40337;52.978;6.310;2023-04-25T08:35:19;7.68;;;2.20;;
54428;SDS011;40337;52.978;6.310;2023-04-25T08:37:45;6.85;;;1.90;;
54428;SDS011;40337;52.978;6.310;2023-04-25T08:40:11;6.20;;;1.90;;
54428;SDS011;40337;52.978;6.310;2023-04-25T08:42:40;6.45;;;2.30;;
54428;SDS011;40337;52.978;6.310;2023-04-25T08:45:07;8.00;;;2.45;;
54428;SDS011;40337;52.978;6.310;2023-04-25T08:47:33;6.32;;;2.00;;
54428;SDS011;40337;52.978;6.310;2023-04-25T08:50:00;5.55;;;1.90;;
54428;SDS011;40337;52.978;6.310;2023-04-25T08:52:29;9.15;;;1.90;;
54428;SDS011;40337;52.978;6.310;2023-04-25T08:55:00;7.75;;;2.78;;
54428;SDS011;40337;52.978;6.310;2023-04-25T08:57:27;9.23;;;3.10;;
54428;SDS011;40337;52.978;6.310;2023-04-25T08:59:53;5.78;;;2.15;;
54428;SDS011;40337;52.978;6.310;2023-04-25T09:02:20;6.50;;;1.90;;
54428;SDS011;40337;52.978;6.310;2023-04-25T09:04:46;4.38;;;1.63;;
54428;SDS011;40337;52.978;6.310;2023-04-25T09:07:12;6.75;;;1.90;;
54428;SDS011;40337;52.978;6.310;2023-04-25T09:09:40;5.78;;;1.52;;
54428;SDS011;40337;52.978;6.310;2023-04-25T09:12:06;6.43;;;1.60;;
54428;SDS011;40337;52.978;6.310;2023-04-25T09:14:32;4.47;;;1.52;;
54428;SDS011;40337;52.978;6.310;2023-04-25T09:16:59;5.75;;;1.60;;
54428;SDS011;40337;52.978;6.310;2023-04-25T09:19:29;4.95;;;1.65;;
54428;SDS011;40337;52.978;6.310;2023-04-25T09:21:57;7.35;;;1.88;;
54428;SDS011;40337;52.978;6.310;2023-04-25T09:27:11;7.38;;;1.70;;
54428;SDS011;40337;52.978;6.310;2023-04-25T09:29:39;6.85;;;1.90;;
54428;SDS011;40337;52.978;6.310;2023-04-25T09:34:46;6.88;;;2.67;;
54428;SDS011;40337;52.978;6.310;2023-04-25T09:37:17;9.80;;;3.58;;
54428;SDS011;40337;52.978;6.310;2023-04-25T09:39:51;6.63;;;2.80;;
54428;SDS011;40337;52.978;6.310;2023-04-25T09:42:21;7.38;;;2.30;;
54428;SDS011;40337;52.978;6.310;2023-04-25T09:44:49;5.57;;;1.77;;
54428;SDS011;40337;52.978;6.310;2023-04-25T09:47:17;7.30;;;1.60;;
54428;SDS011;40337;52.978;6.310;2023-04-25T09:49:43;10.48;;;2.35;;
54428;SDS011;40337;52.978;6.310;2023-04-25T09:52:13;8.18;;;2.10;;
54428;SDS011;40337;52.978;6.310;2023-04-25T09:54:40;5.97;;;2.13;;
54428;SDS011;40337;52.978;6.310;2023-04-25T09:59:38;8.70;;;1.95;;
54428;SDS011;40337;52.978;6.310;2023-04-25T10:02:06;5.90;;;2.10;;
54428;SDS011;40337;52.978;6.310;2023-04-25T10:04:33;9.30;;;2.13;;
54428;SDS011;40337;52.978;6.310;2023-04-25T10:07:01;7.45;;;1.92;;
54428;SDS011;40337;52.978;6.310;2023-04-25T10:09:30;6.20;;;1.77;;
54428;SDS011;40337;52.978;6.310;2023-04-25T10:11:58;9.38;;;2.03;;
54428;SDS011;40337;52.978;6.310;2023-04-25T10:14:25;6.72;;;1.95;;
54428;SDS011;40337;52.978;6.310;2023-04-25T10:16:51;7.22;;;1.90;;
54428;SDS011;40337;52.978;6.310;2023-04-25T10:19:19;9.40;;;2.13;;
54428;SDS011;40337;52.978;6.310;2023-04-25T10:21:50;6.25;;;1.98;;
54428;SDS011;40337;52.978;6.310;2023-04-25T10:24:23;6.18;;;1.92;;
54428;SDS011;40337;52.978;6.310;2023-04-25T10:26:50;7.85;;;2.10;;
54428;SDS011;40337;52.978;6.310;2023-04-25T10:29:23;7.07;;;2.30;;
54428;SDS011;40337;52.978;6.310;2023-04-25T10:31:50;4.85;;;1.80;;
54428;SDS011;40337;52.978;6.310;2023-04-25T10:34:16;8.18;;;2.28;;
54428;SDS011;40337;52.978;6.310;2023-04-25T10:36:42;6.93;;;2.05;;
54428;SDS011;40337;52.978;6.310;2023-04-25T10:39:13;7.15;;;1.90;;
54428;SDS011;40337;52.978;6.310;2023-04-25T10:42:01;7.53;;;1.95;;
54428;SDS011;40337;52.978;6.310;2023-04-25T10:44:28;6.55;;;2.20;;
54428;SDS011;40337;52.978;6.310;2023-04-25T10:46:55;8.10;;;2.10;;
54428;SDS011;40337;52.978;6.310;2023-04-25T10:49:29;6.53;;;2.22;;
54428;SDS011;40337;52.978;6.310;2023-04-25T10:52:35;7.93;;;2.08;;
54428;SDS011;40337;52.978;6.310;2023-04-25T10:54:55;7.05;;;1.80;;
54428;SDS011;40337;52.978;6.310;2023-04-25T10:57:28;4.28;;;1.60;;
54428;SDS011;40337;52.978;6.310;2023-04-25T10:59:58;8.38;;;2.83;;
54428;SDS011;40337;52.978;6.310;2023-04-25T11:02:31;7.72;;;3.55;;
54428;SDS011;40337;52.978;6.310;2023-04-25T11:04:57;5.30;;;3.20;;
54428;SDS011;40337;52.978;6.310;2023-04-25T11:07:44;4.75;;;2.20;;
54428;SDS011;40337;52.978;6.310;2023-04-25T11:10:16;6.35;;;1.80;;
54428;SDS011;40337;52.978;6.310;2023-04-25T11:12:42;5.22;;;1.70;;
54428;SDS011;40337;52.978;6.310;2023-04-25T11:15:09;4.95;;;1.95;;
54428;SDS011;40337;52.978;6.310;2023-04-25T11:17:35;10.73;;;4.30;;
54428;SDS011;40337;52.978;6.310;2023-04-25T11:20:00;6.78;;;2.92;;
54428;SDS011;40337;52.978;6.310;2023-04-25T11:22:29;9.35;;;3.92;;
54428;SDS011;40337;52.978;6.310;2023-04-25T11:24:55;8.32;;;3.00;;
54428;SDS011;40337;52.978;6.310;2023-04-25T11:27:20;7.68;;;2.97;;
54428;SDS011;40337;52.978;6.310;2023-04-25T11:29:46;7.07;;;2.10;;
54428;SDS011;40337;52.978;6.310;2023-04-25T11:32:14;6.75;;;1.83;;
54428;SDS011;40337;52.978;6.310;2023-04-25T11:34:42;6.25;;;1.60;;
54428;SDS011;40337;52.978;6.310;2023-04-25T11:37:09;5.50;;;1.63;;
54428;SDS011;40337;52.978;6.310;2023-04-25T11:39:36;5.97;;;1.75;;
54428;SDS011;40337;52.978;6.310;2023-04-25T11:42:03;5.25;;;1.50;;
54428;SDS011;40337;52.978;6.310;2023-04-25T11:44:30;6.35;;;1.60;;
54428;SDS011;40337;52.978;6.310;2023-04-25T11:46:56;4.53;;;1.70;;
54428;SDS011;40337;52.978;6.310;2023-04-25T11:49:21;6.75;;;1.30;;
54428;SDS011;40337;52.978;6.310;2023-04-25T11:51:47;4.07;;;1.50;;
54428;SDS011;40337;52.978;6.310;2023-04-25T11:54:14;7.85;;;1.60;;
54428;SDS011;40337;52.978;6.310;2023-04-25T11:56:41;6.38;;;1.80;;
54428;SDS011;40337;52.978;6.310;2023-04-25T11:59:10;6.18;;;2.00;;
54428;SDS011;40337;52.978;6.310;2023-04-25T12:01:37;7.43;;;2.05;;
54428;SDS011;40337;52.978;6.310;2023-04-25T12:04:17;6.45;;;2.10;;
54428;SDS011;40337;52.978;6.310;2023-04-25T12:06:43;5.38;;;1.90;;
54428;SDS011;40337;52.978;6.310;2023-04-25T12:09:13;9.32;;;1.90;;
54428;SDS011;40337;52.978;6.310;2023-04-25T12:11:44;7.72;;;2.55;;
54428;SDS011;40337;52.978;6.310;2023-04-25T12:14:11;6.55;;;3.28;;
54428;SDS011;40337;52.978;6.310;2023-04-25T12:16:46;9.77;;;4.70;;
54428;SDS011;40337;52.978;6.310;2023-04-25T12:19:13;7.13;;;3.58;;
54428;SDS011;40337;52.978;6.310;2023-04-25T12:21:40;7.38;;;3.47;;
54428;SDS011;40337;52.978;6.310;2023-04-25T12:24:09;7.53;;;2.30;;
54428;SDS011;40337;52.978;6.310;2023-04-25T12:27:02;6.90;;;1.80;;
54428;SDS011;40337;52.978;6.310;2023-04-25T12:29:29;7.13;;;1.98;;
54428;SDS011;40337;52.978;6.310;2023-04-25T12:31:58;8.07;;;1.95;;
54428;SDS011;40337;52.978;6.310;2023-04-25T12:34:24;8.50;;;3.72;;
54428;SDS011;40337;52.978;6.310;2023-04-25T12:36:51;11.07;;;4.38;;
54428;SDS011;40337;52.978;6.310;2023-04-25T12:39:21;13.75;;;8.98;;
54428;SDS011;40337;52.978;6.310;2023-04-25T12:41:48;7.55;;;2.45;;
54428;SDS011;40337;52.978;6.310;2023-04-25T12:44:14;6.05;;;2.40;;
54428;SDS011;40337;52.978;6.310;2023-04-25T12:46:40;6.93;;;2.03;;
54428;SDS011;40337;52.978;6.310;2023-04-25T12:49:06;5.78;;;2.10;;
54428;SDS011;40337;52.978;6.310;2023-04-25T12:51:33;7.30;;;1.88;;
54428;SDS011;40337;52.978;6.310;2023-04-25T12:54:02;8.45;;;2.63;;
54428;SDS011;40337;52.978;6.310;2023-04-25T12:56:29;7.05;;;2.50;;
54428;SDS011;40337;52.978;6.310;2023-04-25T12:58:55;8.57;;;2.20;;
54428;SDS011;40337;52.978;6.310;2023-04-25T13:01:21;6.68;;;2.08;;
54428;SDS011;40337;52.978;6.310;2023-04-25T13:03:47;8.07;;;2.50;;
54428;SDS011;40337;52.978;6.310;2023-04-25T13:06:13;8.70;;;2.35;;
54428;SDS011;40337;52.978;6.310;2023-04-25T13:08:39;11.20;;;2.15;;
54428;SDS011;40337;52.978;6.310;2023-04-25T13:11:06;6.28;;;1.65;;
54428;SDS011;40337;52.978;6.310;2023-04-25T13:13:32;6.95;;;1.98;;
54428;SDS011;40337;52.978;6.310;2023-04-25T13:15:59;7.82;;;2.25;;
54428;SDS011;40337;52.978;6.310;2023-04-25T13:18:32;9.23;;;2.33;;
54428;SDS011;40337;52.978;6.310;2023-04-25T13:20:58;9.50;;;3.67;;
54428;SDS011;40337;52.978;6.310;2023-04-25T13:23:25;8.90;;;4.70;;
54428;SDS011;40337;52.978;6.310;2023-04-25T13:25:52;8.63;;;3.60;;
54428;SDS011;40337;52.978;6.310;2023-04-25T13:28:18;8.68;;;3.70;;
54428;SDS011;40337;52.978;6.310;2023-04-25T13:30:44;6.13;;;2.63;;
54428;SDS011;40337;52.978;6.310;2023-04-25T13:33:10;8.05;;;1.90;;
54428;SDS011;40337;52.978;6.310;2023-04-25T13:35:36;8.15;;;2.40;;
54428;SDS011;40337;52.978;6.310;2023-04-25T13:38:02;6.88;;;2.80;;
54428;SDS011;40337;52.978;6.310;2023-04-25T13:40:28;9.70;;;4.22;;
54428;SDS011;40337;52.978;6.310;2023-04-25T13:42:54;7.40;;;2.97;;
54428;SDS011;40337;52.978;6.310;2023-04-25T13:45:20;7.68;;;2.10;;
54428;SDS011;40337;52.978;6.310;2023-04-25T13:47:46;6.30;;;2.00;;
54428;SDS011;40337;52.978;6.310;2023-04-25T13:50:12;5.80;;;2.20;;
54428;SDS011;40337;52.978;6.310;2023-04-25T13:52:38;9.48;;;3.55;;
54428;SDS011;40337;52.978;6.310;2023-04-25T13:55:04;7.90;;;2.58;;
54428;SDS011;40337;52.978;6.310;2023-04-25T13:57:32;9.18;;;3.28;;
54428;SDS011;40337;52.978;6.310;2023-04-25T13:59:58;7.72;;;1.90;;
54428;SDS011;40337;52.978;6.310;2023-04-25T14:02:24;5.60;;;1.90;;
54428;SDS011;40337;52.978;6.310;2023-04-25T14:04:50;7.53;;;2.20;;
54428;SDS011;40337;52.978;6.310;2023-04-25T14:07:15;6.65;;;2.15;;
54428;SDS011;40337;52.978;6.310;2023-04-25T14:09:41;9.85;;;4.00;;
54428;SDS011;40337;52.978;6.310;2023-04-25T14:12:07;12.85;;;3.80;;
54428;SDS011;40337;52.978;6.310;2023-04-25T14:14:32;8.27;;;2.35;;
54428;SDS011;40337;52.978;6.310;2023-04-25T14:16:58;6.97;;;2.60;;
54428;SDS011;40337;52.978;6.310;2023-04-25T14:19:23;7.93;;;2.75;;
54428;SDS011;40337;52.978;6.310;2023-04-25T14:21:49;6.95;;;2.35;;
54428;SDS011;40337;52.978;6.310;2023-04-25T14:24:15;6.20;;;2.15;;
54428;SDS011;40337;52.978;6.310;2023-04-25T14:26:41;10.20;;;3.30;;
54428;SDS011;40337;52.978;6.310;2023-04-25T14:29:07;8.20;;;2.65;;
54428;SDS011;40337;52.978;6.310;2023-04-25T14:31:34;9.73;;;3.15;;
54428;SDS011;40337;52.978;6.310;2023-04-25T14:34:00;10.25;;;3.47;;
54428;SDS011;40337;52.978;6.310;2023-04-25T14:36:27;6.35;;;2.30;;
54428;SDS011;40337;52.978;6.310;2023-04-25T14:38:53;7.80;;;2.38;;
54428;SDS011;40337;52.978;6.310;2023-04-25T14:41:19;8.95;;;3.17;;
54428;SDS011;40337;52.978;6.310;2023-04-25T14:43:46;12.85;;;3.92;;
54428;SDS011;40337;52.978;6.310;2023-04-25T14:46:12;10.98;;;3.83;;
54428;SDS011;40337;52.978;6.310;2023-04-25T14:48:37;7.30;;;2.83;;